Huvudsida
METAR-TAF:

METAR-TAF

Flygplatser :

Uppsala-Ärna flygplats

Uppsala, Sverige

latitud: 59-53N, longitud: 017-36E, höjd: 21 m

Aktuellt väderrapport

Denna rapport gjordes för 44 minuter sedan, klockan 16:50 UTC
Vind 1 kt varierande vindriktning
Temperatur 19°C
Fuktighet 56%
Tryck 1013 hPa
Sikt 10 km eller mer

METAR: ESCM 071650Z AUTO VRB01KT 9999 NCD 19/10 Q1013

Tid: 19:34 (17:34 UTC)

Väderprognos

Denna rapport gjordes för 6 timmar och 9 minuter sedan, klockan 11:25 UTC
Prognos gäller från 07 kl. 12 UTC till 07 kl. 14 UTC
Vind 5 kt från nordväst
Sikt 10 km eller mer
Brutna moln på en höjd av 3000 ft
Temporärt
från 07 kl. 12 UTC till 07 kl. 13 UTC
Sikt: 3000 m
Spridda moln på en höjd av 600 ft
Brutna moln på en höjd av 1200 ft
regn, duggregn

TAF: ESCM 071125Z 0712/0714 31005KT 9999 BKN030 TEMPO 0712/0713 3000 RADZ SCT006 BKN012 RMK MIL

Aktuella väderrapporter och prognoser från 4000 flygplatser (METAR- och TAF-rapporter).

De tillgängliga stationerna syns som gula och röda prickar på kartan.

För musen över prickarna för att se namnen på stationerna.

Klicka sedan för att få väderrapporter och prognoser.

För att ändra kartan: Klicka på de gröna knapparna med ett svart kors på för att zooma in; den gröna knappen med ett streck på för att zooma ut; eller på de gröna pilarna för angränsande kartor.


METAR-TAF: